Observations for TREVISO CIV IT-AFB, Italy (LIPH)

LIPH 191950Z 02004KT 350V050 9999 FEW020 SCT050 17/16 Q1017 
LIPH 191920Z 36004KT 9999 SCT050 18/16 Q1017
LIPH 191850Z 36003KT 9999 SCT050 18/16 Q1016
LIPH 191820Z 01003KT 9999 SCT060 18/16 Q1016
LIPH 191750Z 02002KT 9999 SCT060 18/16 Q1016
LIPH 191720Z 03003KT 9999 FEW020 SCT060 18/16 Q1016 
LIPH 191650Z 02004KT 9999 SCT060 18/15 Q1016
LIPH 191620Z 01003KT 340V050 9999 FEW020 SCT070 19/15 Q1016 
LIPH 191550Z 03004KT 350V050 9999 FEW020 SCT070 19/15 Q1016 
LIPH 191520Z 03003KT 360V060 9999 SCT070 19/16 Q1016
LIPH 191450Z 01004KT 9999 SCT070 19/16 Q1016
LIPH 191420Z 01006KT 9999 SCT070 20/16 Q1016
LIPH 191350Z 35004KT 320V020 9999 SCT040 SCT070 20/16 Q1016 
LIPH 191320Z 01004KT 330V040 9999 SCT030 20/15 Q1016
LIPH 191250Z 35003KT 310V020 9999 SCT020 20/15 Q1016
LIPH 191220Z VRB01KT 9999 SCT020 21/13 Q1016
LIPH 191150Z VRB02KT 9999 SCT020 21/14 Q1016
LIPH 191120Z VRB02KT 9999 SCT020 21/15 Q1016
LIPH 191050Z 05004KT 010V090 CAVOK 20/15 Q1016  
LIPH 191020Z 04004KT 010V090 8000 NSC 20/16 Q1016   
LIPH 190950Z 04005KT 360V080 8000 FEW020 20/16 Q1016
LIPH 190920Z 04005KT 7000 FEW010 18/16 Q1016
LIPH 190850Z 05005KT 020V080 7000 SCT010 18/15 Q1016
LIPH 190820Z 03005KT 360V060 5000 BR SCT010 17/15 Q1016 
LIPH 190750Z 04004KT 360V070 4000 BR SCT010 17/15 Q1016 
LIPH 190720Z 03004KT 360V060 2500 BR SCT010 16/15 Q1016 
LIPH 190650Z 02003KT 350V050 2500 BR SCT010 16/15 Q1016 
LIPH 190620Z 02003KT 330V050 2000 BR FEW010 15/15 Q1016 
LIPH 190550Z 02003KT 2000 BR SCT020 15/15 Q1016 
LIPH 190520Z 01003KT 340V040 2000 BR FEW010 15/15 Q1016 
LIPH 190450Z AUTO 03004KT 2200 BR FEW061/// BKN074/// 15/14 Q1016   
LIPH 190450Z AUTO 03004KT 2200 BR FEW061 BKN074 15/14 Q1016
LIPH 190420Z AUTO 09002KT 1800 BR OVC071/// 14/14 Q1016 
LIPH 190420Z AUTO 09002KT 1800 BR OVC071 14/14 Q1016
LIPH 190350Z AUTO 36003KT 330V030 2300 BR OVC068/// 15/15 Q1016 
LIPH 190350Z AUTO 36003KT 330V030 2300 BR OVC068 15/15 Q1016
LIPH 190320Z AUTO 02003KT 2300 BR BKN068/// OVC100/// 15/15 Q1016   
LIPH 190320Z AUTO 02003KT 2300 BR BKN068 OVC100 15/15 Q1016
LIPH 190250Z AUTO 02002KT 2300 BR BKN074/// 15/15 Q1016 
LIPH 190250Z AUTO 02002KT 2300 BR BKN074 15/15 Q1016
LIPH 190220Z AUTO 02003KT 330V030 2700 BR FEW077/// BKN100/// 15/15 Q1016   
LIPH 190220Z AUTO 02003KT 330V030 2700 BR FEW077 BKN100 15/15 Q1016
LIPH 190150Z AUTO VRB02KT 2800 BR BKN050/// 15/15 Q1016 
LIPH 190150Z AUTO VRB02KT 2800 BR BKN050 15/15 Q1016
LIPH 190120Z AUTO VRB02KT 3200 BR BKN043/// 15/15 Q1016 
LIPH 190120Z AUTO VRB02KT 3200 BR BKN043 15/15 Q1016
LIPH 190050Z AUTO VRB02KT 4100 BR BKN043/// OVC100/// 15/15 Q1016   
LIPH 190050Z AUTO VRB02KT 4100 BR BKN043 OVC100 15/15 Q1016
LIPH 190020Z AUTO VRB02KT 4000 BR BKN042/// OVC100/// 15/15 Q1016   
LIPH 190020Z AUTO VRB02KT 4000 BR BKN042 OVC100 15/15 Q1016
LIPH 182350Z AUTO 03001KT 4500 BR BKN043/// 15/15 Q1016 
LIPH 182350Z AUTO 03001KT 4500 BR BKN043 15/15 Q1016
LIPH 182320Z AUTO 34001KT 5000 BR BKN047/// OVC094/// 15/15 Q1017   
LIPH 182320Z AUTO 34001KT 5000 BR BKN047 OVC094 15/15 Q1017
LIPH 182250Z AUTO VRB01KT 3800 BR SCT047/// BKN096/// 15/14 Q1017   
LIPH 182250Z AUTO VRB01KT 3800 BR SCT047 BKN096 15/14 Q1017
LIPH 182220Z AUTO VRB01KT 2500 BR FEW049/// OVC097/// 15/14 Q1017   
LIPH 182220Z AUTO VRB01KT 2500 BR FEW049 OVC097 15/14 Q1017
LIPH 182150Z AUTO 06001KT 2400 BR BKN096/// 15/14 Q1017 
LIPH 182150Z AUTO 06001KT 2400 BR BKN096 15/14 Q1017
LIPH 182120Z AUTO VRB02KT 2400 BR FEW057/// BKN097/// 15/15 Q1017   
LIPH 182120Z AUTO VRB02KT 2400 BR FEW057 BKN097 15/15 Q1017
LIPH 182050Z VRB01KT 5000 BR NSC 15/14 Q1017
LIPH 182020Z VRB01KT 7000 NSC 16/15 Q1017   
LIPH 181950Z VRB01KT 5000 BR NSC 17/15 Q1017
LIPH 181920Z VRB02KT 5000 BR NSC 16/15 Q1017